sensor_id;sensor_type;location;lat;lon;timestamp;pressure;altitude;pressure_sealevel;temperature;humidity
75747;BME280;70632;52.232;21.038;2023-07-31T00:00:11;99631.56;;;22.21;58.76
75747;BME280;70632;52.232;21.038;2023-07-31T00:02:58;99619.25;;;22.17;58.21
75747;BME280;70632;52.232;21.038;2023-07-31T00:05:24;99633.94;;;22.05;59.17
75747;BME280;70632;52.232;21.038;2023-07-31T00:07:49;99635.50;;;21.98;59.05
75747;BME280;70632;52.232;21.038;2023-07-31T00:10:15;99628.97;;;22.10;58.87
75747;BME280;70632;52.232;21.038;2023-07-31T00:12:42;99630.13;;;21.87;59.72
75747;BME280;70632;52.232;21.038;2023-07-31T00:15:08;99624.88;;;21.85;59.72
75747;BME280;70632;52.232;21.038;2023-07-31T00:17:34;99631.69;;;21.80;60.10
75747;BME280;70632;52.232;21.038;2023-07-31T00:20:00;99637.91;;;21.61;60.75
75747;BME280;70632;52.232;21.038;2023-07-31T00:22:26;99624.19;;;21.63;60.49
75747;BME280;70632;52.232;21.038;2023-07-31T00:24:52;99630.63;;;21.62;60.86
75747;BME280;70632;52.232;21.038;2023-07-31T00:27:17;99627.06;;;21.61;61.26
75747;BME280;70632;52.232;21.038;2023-07-31T00:29:43;99641.78;;;21.68;61.01
75747;BME280;70632;52.232;21.038;2023-07-31T00:32:09;99636.06;;;21.62;61.36
75747;BME280;70632;52.232;21.038;2023-07-31T00:34:34;99629.31;;;21.56;61.69
75747;BME280;70632;52.232;21.038;2023-07-31T00:37:00;99628.84;;;21.51;62.28
75747;BME280;70632;52.232;21.038;2023-07-31T00:39:26;99630.84;;;21.49;62.05
75747;BME280;70632;52.232;21.038;2023-07-31T00:41:51;99631.31;;;21.54;61.68
75747;BME280;70632;52.232;21.038;2023-07-31T00:44:17;99618.69;;;21.43;62.38
75747;BME280;70632;52.232;21.038;2023-07-31T00:46:43;99628.44;;;21.46;62.22
75747;BME280;70632;52.232;21.038;2023-07-31T00:49:09;99622.72;;;21.49;62.25
75747;BME280;70632;52.232;21.038;2023-07-31T00:51:35;99623.19;;;21.54;62.36
75747;BME280;70632;52.232;21.038;2023-07-31T00:54:02;99620.59;;;21.53;61.83
75747;BME280;70632;52.232;21.038;2023-07-31T00:56:28;99626.47;;;21.58;61.79
75747;BME280;70632;52.232;21.038;2023-07-31T00:58:55;99623.59;;;21.59;61.54
75747;BME280;70632;52.232;21.038;2023-07-31T01:01:21;99616.88;;;21.54;61.14
75747;BME280;70632;52.232;21.038;2023-07-31T01:03:48;99620.72;;;21.51;60.98
75747;BME280;70632;52.232;21.038;2023-07-31T01:06:19;99627.28;;;21.48;61.47
75747;BME280;70632;52.232;21.038;2023-07-31T01:09:34;99626.13;;;21.51;61.00
75747;BME280;70632;52.232;21.038;2023-07-31T01:11:52;99619.03;;;21.50;61.06
75747;BME280;70632;52.232;21.038;2023-07-31T01:14:18;99630.19;;;21.57;60.88
75747;BME280;70632;52.232;21.038;2023-07-31T01:16:44;99635.78;;;21.34;61.64
75747;BME280;70632;52.232;21.038;2023-07-31T01:19:11;99630.69;;;21.51;61.42
75747;BME280;70632;52.232;21.038;2023-07-31T01:25:00;99628.28;;;21.47;61.73
75747;BME280;70632;52.232;21.038;2023-07-31T01:27:34;99634.44;;;21.50;61.40
75747;BME280;70632;52.232;21.038;2023-07-31T01:30:15;99633.50;;;21.39;62.04
75747;BME280;70632;52.232;21.038;2023-07-31T01:32:45;99625.53;;;21.38;61.33
75747;BME280;70632;52.232;21.038;2023-07-31T01:35:12;99634.50;;;21.38;61.88
75747;BME280;70632;52.232;21.038;2023-07-31T01:37:38;99643.84;;;21.45;61.56
75747;BME280;70632;52.232;21.038;2023-07-31T01:40:05;99636.59;;;21.25;61.93
75747;BME280;70632;52.232;21.038;2023-07-31T01:42:31;99638.06;;;21.39;61.95
75747;BME280;70632;52.232;21.038;2023-07-31T01:44:56;99638.22;;;21.37;62.17
75747;BME280;70632;52.232;21.038;2023-07-31T01:47:22;99643.75;;;21.26;62.18
75747;BME280;70632;52.232;21.038;2023-07-31T01:49:49;99639.03;;;21.28;62.26
75747;BME280;70632;52.232;21.038;2023-07-31T01:52:15;99633.50;;;21.39;62.09
75747;BME280;70632;52.232;21.038;2023-07-31T01:54:40;99631.88;;;21.27;62.22
75747;BME280;70632;52.232;21.038;2023-07-31T01:57:06;99638.56;;;21.23;62.56
75747;BME280;70632;52.232;21.038;2023-07-31T01:59:32;99640.72;;;21.09;62.77
75747;BME280;70632;52.232;21.038;2023-07-31T02:01:57;99658.78;;;21.19;62.81
75747;BME280;70632;52.232;21.038;2023-07-31T02:04:23;99648.13;;;21.07;62.48
75747;BME280;70632;52.232;21.038;2023-07-31T02:06:49;99650.81;;;21.18;62.62
75747;BME280;70632;52.232;21.038;2023-07-31T02:09:14;99647.94;;;21.19;62.84
75747;BME280;70632;52.232;21.038;2023-07-31T02:11:40;99656.47;;;21.15;63.18
75747;BME280;70632;52.232;21.038;2023-07-31T02:14:06;99656.38;;;21.16;63.47
75747;BME280;70632;52.232;21.038;2023-07-31T02:16:31;99660.34;;;20.80;64.29
75747;BME280;70632;52.232;21.038;2023-07-31T02:18:57;99656.91;;;20.99;63.84
75747;BME280;70632;52.232;21.038;2023-07-31T02:21:23;99662.19;;;20.80;64.77
75747;BME280;70632;52.232;21.038;2023-07-31T02:23:48;99660.81;;;20.85;63.98
75747;BME280;70632;52.232;21.038;2023-07-31T02:26:14;99667.34;;;20.83;64.58
75747;BME280;70632;52.232;21.038;2023-07-31T02:28:40;99663.03;;;20.60;65.09
75747;BME280;70632;52.232;21.038;2023-07-31T02:31:08;99664.09;;;20.68;64.90
75747;BME280;70632;52.232;21.038;2023-07-31T02:33:34;99668.91;;;20.65;65.14
75747;BME280;70632;52.232;21.038;2023-07-31T02:36:00;99671.75;;;20.63;65.37
75747;BME280;70632;52.232;21.038;2023-07-31T02:38:25;99653.31;;;20.57;65.60
75747;BME280;70632;52.232;21.038;2023-07-31T02:40:51;99680.56;;;20.44;65.77
75747;BME280;70632;52.232;21.038;2023-07-31T02:43:16;99680.78;;;20.52;65.84
75747;BME280;70632;52.232;21.038;2023-07-31T02:45:42;99672.44;;;20.44;66.24
75747;BME280;70632;52.232;21.038;2023-07-31T02:48:08;99680.53;;;20.55;65.54
75747;BME280;70632;52.232;21.038;2023-07-31T02:50:34;99672.16;;;20.47;65.99
75747;BME280;70632;52.232;21.038;2023-07-31T02:52:59;99667.25;;;20.52;65.78
75747;BME280;70632;52.232;21.038;2023-07-31T02:55:25;99662.34;;;20.35;66.47
75747;BME280;70632;52.232;21.038;2023-07-31T02:57:50;99674.44;;;20.31;66.49
75747;BME280;70632;52.232;21.038;2023-07-31T03:00:18;99667.88;;;20.45;66.07
75747;BME280;70632;52.232;21.038;2023-07-31T03:02:43;99676.59;;;20.48;65.66
75747;BME280;70632;52.232;21.038;2023-07-31T03:05:09;99668.81;;;20.55;65.61
75747;BME280;70632;52.232;21.038;2023-07-31T03:07:34;99679.72;;;20.10;66.98
75747;BME280;70632;52.232;21.038;2023-07-31T03:10:00;99667.72;;;20.46;65.36
75747;BME280;70632;52.232;21.038;2023-07-31T03:12:26;99673.25;;;20.88;64.11
75747;BME280;70632;52.232;21.038;2023-07-31T03:14:52;99658.09;;;20.65;64.43
75747;BME280;70632;52.232;21.038;2023-07-31T03:17:17;99665.00;;;20.58;64.65
75747;BME280;70632;52.232;21.038;2023-07-31T03:19:43;99671.06;;;20.82;63.65
75747;BME280;70632;52.232;21.038;2023-07-31T03:22:09;99670.03;;;20.94;63.58
75747;BME280;70632;52.232;21.038;2023-07-31T03:24:34;99671.63;;;20.65;64.09
75747;BME280;70632;52.232;21.038;2023-07-31T03:27:00;99679.19;;;20.82;63.56
75747;BME280;70632;52.232;21.038;2023-07-31T03:29:26;99666.25;;;21.06;62.57
75747;BME280;70632;52.232;21.038;2023-07-31T03:31:51;99679.53;;;20.88;62.91
75747;BME280;70632;52.232;21.038;2023-07-31T03:34:17;99674.59;;;20.82;62.77
75747;BME280;70632;52.232;21.038;2023-07-31T03:36:42;99682.69;;;20.73;62.80
75747;BME280;70632;52.232;21.038;2023-07-31T03:39:08;99691.28;;;20.78;63.05
75747;BME280;70632;52.232;21.038;2023-07-31T03:41:34;99686.38;;;20.72;62.64
75747;BME280;70632;52.232;21.038;2023-07-31T03:44:00;99693.03;;;20.68;63.09
75747;BME280;70632;52.232;21.038;2023-07-31T03:46:25;99691.91;;;21.02;61.90
75747;BME280;70632;52.232;21.038;2023-07-31T03:48:51;99691.03;;;20.81;62.83
75747;BME280;70632;52.232;21.038;2023-07-31T03:51:17;99694.81;;;20.89;62.30
75747;BME280;70632;52.232;21.038;2023-07-31T03:53:43;99689.84;;;20.63;62.98
75747;BME280;70632;52.232;21.038;2023-07-31T03:56:09;99703.97;;;20.77;62.76
75747;BME280;70632;52.232;21.038;2023-07-31T03:58:35;99707.88;;;20.52;63.77
75747;BME280;70632;52.232;21.038;2023-07-31T04:01:02;99704.94;;;20.44;64.19
75747;BME280;70632;52.232;21.038;2023-07-31T04:03:29;99704.25;;;20.63;63.94
75747;BME280;70632;52.232;21.038;2023-07-31T04:05:55;99717.94;;;20.62;63.77
75747;BME280;70632;52.232;21.038;2023-07-31T04:08:22;99702.34;;;20.75;62.66
75747;BME280;70632;52.232;21.038;2023-07-31T04:10:48;99699.16;;;20.81;62.97
75747;BME280;70632;52.232;21.038;2023-07-31T04:13:14;99722.63;;;20.60;63.52
75747;BME280;70632;52.232;21.038;2023-07-31T04:15:40;99705.09;;;20.95;62.44
75747;BME280;70632;52.232;21.038;2023-07-31T04:18:06;99718.59;;;20.86;62.36
75747;BME280;70632;52.232;21.038;2023-07-31T04:20:32;99713.03;;;20.55;62.92
75747;BME280;70632;52.232;21.038;2023-07-31T04:23:00;99707.22;;;20.92;62.67
75747;BME280;70632;52.232;21.038;2023-07-31T04:25:25;99720.19;;;20.88;62.15
75747;BME280;70632;52.232;21.038;2023-07-31T04:27:51;99722.81;;;20.99;61.92
75747;BME280;70632;52.232;21.038;2023-07-31T04:30:17;99728.53;;;20.65;63.18
75747;BME280;70632;52.232;21.038;2023-07-31T04:32:43;99730.84;;;20.69;62.91
75747;BME280;70632;52.232;21.038;2023-07-31T04:35:08;99730.31;;;20.75;62.70
75747;BME280;70632;52.232;21.038;2023-07-31T04:37:34;99735.22;;;20.49;63.64
75747;BME280;70632;52.232;21.038;2023-07-31T04:39:59;99737.63;;;20.64;63.10
75747;BME280;70632;52.232;21.038;2023-07-31T04:42:28;99743.66;;;20.67;62.76
75747;BME280;70632;52.232;21.038;2023-07-31T04:44:54;99742.84;;;20.87;62.46
75747;BME280;70632;52.232;21.038;2023-07-31T04:47:19;99749.94;;;20.68;62.46
75747;BME280;70632;52.232;21.038;2023-07-31T04:49:45;99753.63;;;20.67;62.82
75747;BME280;70632;52.232;21.038;2023-07-31T04:52:11;99741.16;;;20.75;62.19
75747;BME280;70632;52.232;21.038;2023-07-31T04:54:36;99738.81;;;21.02;61.57
75747;BME280;70632;52.232;21.038;2023-07-31T04:57:03;99741.41;;;20.72;62.22
75747;BME280;70632;52.232;21.038;2023-07-31T04:59:28;99740.13;;;20.87;62.05
75747;BME280;70632;52.232;21.038;2023-07-31T05:01:54;99731.34;;;20.95;61.47
75747;BME280;70632;52.232;21.038;2023-07-31T05:04:19;99737.03;;;21.24;60.66
75747;BME280;70632;52.232;21.038;2023-07-31T05:06:45;99739.38;;;21.28;60.63
75747;BME280;70632;52.232;21.038;2023-07-31T05:09:11;99732.34;;;21.46;60.29
75747;BME280;70632;52.232;21.038;2023-07-31T05:11:37;99737.75;;;21.46;59.86
75747;BME280;70632;52.232;21.038;2023-07-31T05:14:03;99745.06;;;21.25;60.65
75747;BME280;70632;52.232;21.038;2023-07-31T05:16:28;99749.59;;;20.93;61.38
75747;BME280;70632;52.232;21.038;2023-07-31T05:18:54;99754.25;;;21.02;60.91
75747;BME280;70632;52.232;21.038;2023-07-31T05:21:20;99750.16;;;21.08;61.28
75747;BME280;70632;52.232;21.038;2023-07-31T05:23:45;99748.94;;;21.12;61.50
75747;BME280;70632;52.232;21.038;2023-07-31T05:26:11;99753.00;;;21.06;61.38
75747;BME280;70632;52.232;21.038;2023-07-31T05:28:37;99755.25;;;21.01;61.42
75747;BME280;70632;52.232;21.038;2023-07-31T05:31:07;99752.59;;;20.79;62.19
75747;BME280;70632;52.232;21.038;2023-07-31T05:33:32;99750.09;;;20.98;62.07
75747;BME280;70632;52.232;21.038;2023-07-31T05:35:59;99762.63;;;20.99;61.88
75747;BME280;70632;52.232;21.038;2023-07-31T05:38:25;99764.66;;;20.86;62.77
75747;BME280;70632;52.232;21.038;2023-07-31T05:40:50;99758.94;;;21.00;61.78
75747;BME280;70632;52.232;21.038;2023-07-31T05:43:16;99770.31;;;20.83;62.48
75747;BME280;70632;52.232;21.038;2023-07-31T05:45:43;99765.63;;;20.42;63.55
75747;BME280;70632;52.232;21.038;2023-07-31T05:48:08;99772.28;;;20.49;63.33
75747;BME280;70632;52.232;21.038;2023-07-31T05:50:34;99769.66;;;20.59;63.06
75747;BME280;70632;52.232;21.038;2023-07-31T05:53:00;99781.59;;;20.56;63.37
75747;BME280;70632;52.232;21.038;2023-07-31T05:55:26;99779.66;;;20.58;63.00
75747;BME280;70632;52.232;21.038;2023-07-31T05:57:53;99785.94;;;20.25;64.28
75747;BME280;70632;52.232;21.038;2023-07-31T06:00:19;99782.97;;;20.28;64.26
75747;BME280;70632;52.232;21.038;2023-07-31T06:02:44;99792.94;;;20.28;64.93
75747;BME280;70632;52.232;21.038;2023-07-31T06:05:10;99793.19;;;20.36;64.99
75747;BME280;70632;52.232;21.038;2023-07-31T06:07:35;99790.59;;;20.23;64.77
75747;BME280;70632;52.232;21.038;2023-07-31T06:10:02;99798.25;;;20.29;64.86
75747;BME280;70632;52.232;21.038;2023-07-31T06:12:31;99793.91;;;20.27;64.65
75747;BME280;70632;52.232;21.038;2023-07-31T06:14:58;99807.31;;;20.06;66.17
75747;BME280;70632;52.232;21.038;2023-07-31T06:17:23;99809.56;;;20.57;64.76
75747;BME280;70632;52.232;21.038;2023-07-31T06:19:49;99809.03;;;20.74;63.57
75747;BME280;70632;52.232;21.038;2023-07-31T06:22:15;99804.16;;;20.45;64.68
75747;BME280;70632;52.232;21.038;2023-07-31T06:24:41;99794.53;;;20.19;64.21
75747;BME280;70632;52.232;21.038;2023-07-31T06:27:06;99800.19;;;20.05;65.79
75747;BME280;70632;52.232;21.038;2023-07-31T06:29:32;99799.34;;;20.04;65.19
75747;BME280;70632;52.232;21.038;2023-07-31T06:31:58;99789.22;;;19.95;65.27
75747;BME280;70632;52.232;21.038;2023-07-31T06:34:24;99804.75;;;20.16;65.44
75747;BME280;70632;52.232;21.038;2023-07-31T06:36:50;99803.28;;;20.00;65.22
75747;BME280;70632;52.232;21.038;2023-07-31T06:39:16;99810.63;;;19.87;66.39
75747;BME280;70632;52.232;21.038;2023-07-31T06:41:42;99796.75;;;19.92;66.48
75747;BME280;70632;52.232;21.038;2023-07-31T06:44:08;99802.16;;;19.81;67.05
75747;BME280;70632;52.232;21.038;2023-07-31T06:46:34;99817.22;;;20.29;65.75
75747;BME280;70632;52.232;21.038;2023-07-31T06:48:59;99815.94;;;20.22;66.14
75747;BME280;70632;52.232;21.038;2023-07-31T06:51:25;99799.69;;;20.22;65.19
75747;BME280;70632;52.232;21.038;2023-07-31T06:53:51;99819.94;;;20.29;65.57
75747;BME280;70632;52.232;21.038;2023-07-31T06:56:16;99819.75;;;20.08;66.29
75747;BME280;70632;52.232;21.038;2023-07-31T06:58:42;99805.72;;;20.15;65.89
75747;BME280;70632;52.232;21.038;2023-07-31T07:01:08;99819.06;;;20.29;65.57
75747;BME280;70632;52.232;21.038;2023-07-31T07:03:34;99820.28;;;20.36;65.34
75747;BME280;70632;52.232;21.038;2023-07-31T07:06:00;99818.31;;;20.38;65.30
75747;BME280;70632;52.232;21.038;2023-07-31T07:08:26;99809.44;;;20.36;65.11
75747;BME280;70632;52.232;21.038;2023-07-31T07:10:51;99819.41;;;20.35;65.55
75747;BME280;70632;52.232;21.038;2023-07-31T07:13:17;99810.03;;;20.17;65.67
75747;BME280;70632;52.232;21.038;2023-07-31T07:15:48;99817.56;;;20.25;65.53
75747;BME280;70632;52.232;21.038;2023-07-31T07:18:13;99814.16;;;20.34;65.37
75747;BME280;70632;52.232;21.038;2023-07-31T07:20:39;99821.38;;;20.55;64.59
75747;BME280;70632;52.232;21.038;2023-07-31T07:23:05;99811.59;;;20.75;64.16
75747;BME280;70632;52.232;21.038;2023-07-31T07:25:31;99820.88;;;21.16;62.97
75747;BME280;70632;52.232;21.038;2023-07-31T07:27:57;99821.31;;;21.32;62.37
75747;BME280;70632;52.232;21.038;2023-07-31T07:30:23;99807.47;;;21.14;62.38
75747;BME280;70632;52.232;21.038;2023-07-31T07:32:50;99813.78;;;21.35;62.24
75747;BME280;70632;52.232;21.038;2023-07-31T07:35:16;99820.00;;;21.47;61.50
75747;BME280;70632;52.232;21.038;2023-07-31T07:37:42;99808.31;;;21.15;62.20
75747;BME280;70632;52.232;21.038;2023-07-31T07:40:08;99805.16;;;21.62;61.16
75747;BME280;70632;52.232;21.038;2023-07-31T07:42:34;99812.47;;;21.51;60.98
75747;BME280;70632;52.232;21.038;2023-07-31T07:44:59;99808.91;;;21.50;60.50
75747;BME280;70632;52.232;21.038;2023-07-31T07:47:25;99815.84;;;21.64;60.02
75747;BME280;70632;52.232;21.038;2023-07-31T07:49:50;99805.06;;;21.73;60.29
75747;BME280;70632;52.232;21.038;2023-07-31T07:52:16;99797.72;;;21.85;59.42
75747;BME280;70632;52.232;21.038;2023-07-31T07:54:42;99806.38;;;21.79;59.57
75747;BME280;70632;52.232;21.038;2023-07-31T07:57:08;99815.00;;;22.05;58.30
75747;BME280;70632;52.232;21.038;2023-07-31T07:59:33;99817.72;;;22.05;58.29
75747;BME280;70632;52.232;21.038;2023-07-31T08:01:59;99818.28;;;21.87;58.06
75747;BME280;70632;52.232;21.038;2023-07-31T08:04:24;99821.09;;;21.97;58.01
75747;BME280;70632;52.232;21.038;2023-07-31T08:06:50;99828.03;;;21.90;57.86
75747;BME280;70632;52.232;21.038;2023-07-31T08:09:16;99817.31;;;21.88;57.81
75747;BME280;70632;52.232;21.038;2023-07-31T08:11:42;99806.34;;;22.20;56.47
75747;BME280;70632;52.232;21.038;2023-07-31T08:14:07;99816.88;;;22.34;56.47
75747;BME280;70632;52.232;21.038;2023-07-31T08:16:33;99803.06;;;22.57;55.86
75747;BME280;70632;52.232;21.038;2023-07-31T08:18:58;99807.75;;;22.85;55.42
75747;BME280;70632;52.232;21.038;2023-07-31T08:21:24;99796.34;;;23.10;54.67
75747;BME280;70632;52.232;21.038;2023-07-31T08:23:50;99793.91;;;23.36;53.49
75747;BME280;70632;52.232;21.038;2023-07-31T08:26:17;99803.47;;;22.92;54.51
75747;BME280;70632;52.232;21.038;2023-07-31T08:28:43;99808.16;;;22.80;54.96
75747;BME280;70632;52.232;21.038;2023-07-31T08:31:11;99805.78;;;22.97;54.65
75747;BME280;70632;52.232;21.038;2023-07-31T08:33:37;99818.50;;;22.96;53.97
75747;BME280;70632;52.232;21.038;2023-07-31T08:36:03;99815.19;;;22.83;53.54
75747;BME280;70632;52.232;21.038;2023-07-31T08:38:29;99808.69;;;23.43;52.34
75747;BME280;70632;52.232;21.038;2023-07-31T08:40:58;99791.63;;;23.22;50.91
75747;BME280;70632;52.232;21.038;2023-07-31T08:43:26;99803.34;;;23.80;50.41
75747;BME280;70632;52.232;21.038;2023-07-31T08:45:52;99803.72;;;24.04;49.52
75747;BME280;70632;52.232;21.038;2023-07-31T08:48:19;99800.09;;;24.13;49.56
75747;BME280;70632;52.232;21.038;2023-07-31T08:50:45;99794.16;;;24.37;47.57
75747;BME280;70632;52.232;21.038;2023-07-31T08:53:11;99793.50;;;24.26;47.65
75747;BME280;70632;52.232;21.038;2023-07-31T08:55:38;99803.03;;;25.56;45.04
75747;BME280;70632;52.232;21.038;2023-07-31T08:58:04;99798.22;;;26.20;43.62
75747;BME280;70632;52.232;21.038;2023-07-31T09:00:32;99788.81;;;26.48;41.24
75747;BME280;70632;52.232;21.038;2023-07-31T09:03:02;99790.34;;;26.92;40.61
75747;BME280;70632;52.232;21.038;2023-07-31T09:05:30;99788.88;;;26.72;40.91
75747;BME280;70632;52.232;21.038;2023-07-31T09:07:57;99798.97;;;26.12;41.71
75747;BME280;70632;52.232;21.038;2023-07-31T09:10:23;99780.22;;;26.85;40.72
75747;BME280;70632;52.232;21.038;2023-07-31T09:12:50;99806.84;;;27.33;38.70
75747;BME280;70632;52.232;21.038;2023-07-31T09:15:16;99790.56;;;26.65;39.24
75747;BME280;70632;52.232;21.038;2023-07-31T09:17:43;99799.31;;;28.32;37.05
75747;BME280;70632;52.232;21.038;2023-07-31T09:20:18;99805.00;;;27.90;38.64
75747;BME280;70632;52.232;21.038;2023-07-31T09:22:45;99796.91;;;28.29;37.76
75747;BME280;70632;52.232;21.038;2023-07-31T09:25:23;99802.03;;;28.87;35.98
75747;BME280;70632;52.232;21.038;2023-07-31T09:30:17;99797.06;;;29.13;35.67
75747;BME280;70632;52.232;21.038;2023-07-31T09:32:47;99802.00;;;29.18;35.05
75747;BME280;70632;52.232;21.038;2023-07-31T09:35:21;99780.41;;;29.83;34.36
75747;BME280;70632;52.232;21.038;2023-07-31T09:37:49;99794.88;;;29.77;34.28
75747;BME280;70632;52.232;21.038;2023-07-31T09:40:28;99796.00;;;30.05;33.57
75747;BME280;70632;52.232;21.038;2023-07-31T09:42:59;99796.59;;;28.24;35.93
75747;BME280;70632;52.232;21.038;2023-07-31T09:45:25;99804.41;;;25.78;41.82
75747;BME280;70632;52.232;21.038;2023-07-31T09:47:52;99804.47;;;25.86;41.57
75747;BME280;70632;52.232;21.038;2023-07-31T09:50:20;99777.69;;;25.90;41.53
75747;BME280;70632;52.232;21.038;2023-07-31T09:52:46;99794.63;;;26.87;40.03
75747;BME280;70632;52.232;21.038;2023-07-31T09:55:12;99788.91;;;26.80;39.67
75747;BME280;70632;52.232;21.038;2023-07-31T09:57:40;99791.28;;;26.67;38.83
75747;BME280;70632;52.232;21.038;2023-07-31T10:00:09;99789.72;;;26.65;39.87
75747;BME280;70632;52.232;21.038;2023-07-31T10:02:36;99795.38;;;26.63;39.49
75747;BME280;70632;52.232;21.038;2023-07-31T10:05:03;99789.22;;;26.69;40.16
75747;BME280;70632;52.232;21.038;2023-07-31T10:07:30;99784.00;;;25.90;38.57
75747;BME280;70632;52.232;21.038;2023-07-31T10:10:00;99778.88;;;25.87;38.72
75747;BME280;70632;52.232;21.038;2023-07-31T10:12:27;99789.53;;;25.98;37.65
75747;BME280;70632;52.232;21.038;2023-07-31T10:14:55;99789.97;;;25.68;38.74
75747;BME280;70632;52.232;21.038;2023-07-31T10:17:23;99787.91;;;25.88;38.20
75747;BME280;70632;52.232;21.038;2023-07-31T10:19:52;99770.78;;;26.03;38.60
75747;BME280;70632;52.232;21.038;2023-07-31T10:22:22;99791.53;;;25.71;39.79
75747;BME280;70632;52.232;21.038;2023-07-31T10:24:48;99777.66;;;25.64;39.87
75747;BME280;70632;52.232;21.038;2023-07-31T10:27:15;99779.19;;;25.49;39.48
75747;BME280;70632;52.232;21.038;2023-07-31T10:29:43;99789.16;;;26.19;39.56
75747;BME280;70632;52.232;21.038;2023-07-31T10:32:12;99777.03;;;26.22;36.17
75747;BME280;70632;52.232;21.038;2023-07-31T10:34:39;99775.03;;;26.24;36.83
75747;BME280;70632;52.232;21.038;2023-07-31T10:37:23;99776.25;;;26.03;36.92
75747;BME280;70632;52.232;21.038;2023-07-31T10:42:56;99791.81;;;26.11;36.71
75747;BME280;70632;52.232;21.038;2023-07-31T10:45:30;99791.16;;;26.43;36.67
75747;BME280;70632;52.232;21.038;2023-07-31T10:48:07;99785.66;;;26.35;36.31
75747;BME280;70632;52.232;21.038;2023-07-31T10:50:38;99773.69;;;26.78;34.57
75747;BME280;70632;52.232;21.038;2023-07-31T10:53:22;99777.44;;;27.35;34.46
75747;BME280;70632;52.232;21.038;2023-07-31T10:55:48;99782.72;;;26.70;35.17
75747;BME280;70632;52.232;21.038;2023-07-31T10:58:19;99769.88;;;27.21;34.75
75747;BME280;70632;52.232;21.038;2023-07-31T11:00:45;99768.56;;;27.49;33.83
75747;BME280;70632;52.232;21.038;2023-07-31T11:03:19;99772.28;;;27.97;32.44
75747;BME280;70632;52.232;21.038;2023-07-31T11:05:56;99770.84;;;28.33;32.25
75747;BME280;70632;52.232;21.038;2023-07-31T11:08:30;99767.66;;;27.40;33.16
75747;BME280;70632;52.232;21.038;2023-07-31T11:13:32;99770.38;;;26.58;34.53
75747;BME280;70632;52.232;21.038;2023-07-31T11:15:58;99778.06;;;27.05;33.29
75747;BME280;70632;52.232;21.038;2023-07-31T11:18:26;99788.03;;;27.38;31.75
75747;BME280;70632;52.232;21.038;2023-07-31T11:20:52;99772.78;;;28.08;30.79
75747;BME280;70632;52.232;21.038;2023-07-31T11:23:19;99765.03;;;28.75;29.40
75747;BME280;70632;52.232;21.038;2023-07-31T11:25:46;99774.22;;;27.72;29.66
75747;BME280;70632;52.232;21.038;2023-07-31T11:28:13;99786.19;;;27.63;30.74
75747;BME280;70632;52.232;21.038;2023-07-31T11:30:40;99775.41;;;27.61;30.27
75747;BME280;70632;52.232;21.038;2023-07-31T11:33:08;99765.66;;;27.51;29.80
75747;BME280;70632;52.232;21.038;2023-07-31T11:35:42;99767.88;;;27.55;29.84
75747;BME280;70632;52.232;21.038;2023-07-31T11:38:27;99756.97;;;26.39;32.58
75747;BME280;70632;52.232;21.038;2023-07-31T11:40:54;99765.41;;;26.53;32.65
75747;BME280;70632;52.232;21.038;2023-07-31T11:43:20;99771.16;;;26.84;32.85
75747;BME280;70632;52.232;21.038;2023-07-31T11:45:56;99760.94;;;26.94;32.48
75747;BME280;70632;52.232;21.038;2023-07-31T11:48:24;99751.94;;;26.68;32.82
75747;BME280;70632;52.232;21.038;2023-07-31T11:50:51;99763.22;;;26.65;32.88
75747;BME280;70632;52.232;21.038;2023-07-31T11:53:22;99757.06;;;26.63;33.03
75747;BME280;70632;52.232;21.038;2023-07-31T11:55:51;99748.66;;;26.57;33.47
75747;BME280;70632;52.232;21.038;2023-07-31T11:58:17;99746.97;;;26.56;33.06
75747;BME280;70632;52.232;21.038;2023-07-31T12:00:43;99761.38;;;25.80;34.97
75747;BME280;70632;52.232;21.038;2023-07-31T12:03:10;99754.63;;;25.92;34.98
75747;BME280;70632;52.232;21.038;2023-07-31T12:05:37;99752.84;;;25.75;35.54
75747;BME280;70632;52.232;21.038;2023-07-31T12:08:09;99752.84;;;25.75;35.60
75747;BME280;70632;52.232;21.038;2023-07-31T12:10:36;99754.53;;;25.76;35.69
75747;BME280;70632;52.232;21.038;2023-07-31T12:13:10;99756.63;;;25.82;35.91
75747;BME280;70632;52.232;21.038;2023-07-31T12:15:43;99749.34;;;25.47;36.61
75747;BME280;70632;52.232;21.038;2023-07-31T12:18:14;99762.31;;;25.63;36.17
75747;BME280;70632;52.232;21.038;2023-07-31T12:20:48;99759.88;;;25.86;36.57
75747;BME280;70632;52.232;21.038;2023-07-31T12:23:19;99750.44;;;25.80;36.19
75747;BME280;70632;52.232;21.038;2023-07-31T12:26:13;99755.09;;;25.80;36.32
75747;BME280;70632;52.232;21.038;2023-07-31T12:28:43;99749.63;;;25.80;36.63
75747;BME280;70632;52.232;21.038;2023-07-31T12:31:11;99746.66;;;25.73;37.67
75747;BME280;70632;52.232;21.038;2023-07-31T12:33:38;99737.50;;;25.82;37.23
75747;BME280;70632;52.232;21.038;2023-07-31T12:36:09;99734.25;;;25.79;37.41
75747;BME280;70632;52.232;21.038;2023-07-31T12:38:35;99728.81;;;25.61;38.02
75747;BME280;70632;52.232;21.038;2023-07-31T12:41:01;99721.34;;;25.63;38.01
75747;BME280;70632;52.232;21.038;2023-07-31T12:43:27;99725.78;;;25.46;38.06
75747;BME280;70632;52.232;21.038;2023-07-31T12:45:54;99736.78;;;25.37;38.72
75747;BME280;70632;52.232;21.038;2023-07-31T12:48:20;99720.09;;;25.40;38.94
75747;BME280;70632;52.232;21.038;2023-07-31T12:50:45;99704.94;;;25.02;38.65
75747;BME280;70632;52.232;21.038;2023-07-31T12:53:11;99720.38;;;25.11;38.65
75747;BME280;70632;52.232;21.038;2023-07-31T12:55:37;99714.94;;;25.11;38.78
75747;BME280;70632;52.232;21.038;2023-07-31T12:58:03;99719.19;;;25.13;38.82
75747;BME280;70632;52.232;21.038;2023-07-31T13:00:29;99702.63;;;25.07;38.19